Greenbelt, MD (20770)

8:25 AM EDT on October 23, 2014 (GMT -0400)
Boxwood Village | Change Station
CLOSE
Current Station
Personal Weather Station
Location: Greenbelt, MD
Elevation: 249 ft
Nearby Weather Stations

Elev 249 ft 39.01 °N, 76.88 °W | Updated 51 seconds ago

Overcast
Overcast
52.5 °F
Feels Like 52.5 °F
N
0.0
Wind Variable Wind from ENE
Gusts 0.0 mph

Today
High -- | Low -- °F
--% Chance of Precip.
Yesterday
High -- | Low -- °F
Precip. -- in
7:25 AM 6:17 PM
Waning Crescent, 0% visible
Pressure 29.89 in
Visibility 10.0 miles
Clouds Overcast 3800 ft
Dew Point 46 °F
Humidity 79%
Rainfall 0.00 in
Snow Depth Not available.
UV 0 out of 12
Pollen 2.50 out of 12
Air Quality Not available.
Flu Activity Sporadic
METAR KCGS 231210Z AUTO 30007KT 10SM OVC038 12/06 A2989 RMK AO1

More Conditions Fewer Conditions

Pressure 29.89 in
Visibility 10.0 miles
Clouds Overcast 3800 ft
Dew Point 46 °F
Humidity 79%
Rainfall 0.00 in
Snow Depth Not available.
UV 0 out of 12
Pollen 2.50 out of 12
Air Quality Not available.
Flu Activity Sporadic
METAR KCGS 231210Z AUTO 30007KT 10SM OVC038 12/06 A2989 RMK AO1

More Conditions Fewer Conditions

10-Day Weather Forecast

Almanac

Astronomy

Oct. 23, 2014 Rise Set
Actual Time 7:25 AM EDT 6:17 PM EDT
Civil Twilight 6:57 AM EDT 6:45 PM EDT
Nautical Twilight 6:26 AM EDT 7:16 PM EDT
Astronomical Twilight 5:55 AM EDT 7:47 PM EDT
Moon 7:02 AM EDT 6:18 PM EDT
Length of Visible Light 11h 47m
Length of Day
10h 52m
Tomorrow will be 2m 22s shorter.
Waning Crescent, 0% of the Moon is Illuminated
Today
Waning Crescent
Oct 23
New
Oct 30
First Quarter
Nov 6
Full
Nov 14
Last Quarter

Today's Extremes

State Highs State Lows

Community

WunderPhotos

Upload Photos

1,764,211 photos uploaded!

WunderBlogs® & News

Nearby

Snow Depth

Station Depth Elevation
No new snow has been reported.

Earthquake Activity

City Distance Mag. Time & Date
No recent earthquake activity has been reported nearby.
Minimum magnitude displayed is 2.5.

Coastal Water Temperatures

Place Temperature
Washington, DC 62.1 °F
Baltimore, MD 64.0 °F
Solomons Island, MD 64.0 °F

Nearby Weather Stations